LFROLFRT

Guest
Details From LFRO - Lannion
To LFRT - Saint Brieuc Armor
Flight Number -
Tags generated
Created
Modified
Stats Distance 28 nm / 52 km
Max Altitude 2,400 ft / 732 m
Waypoints 3
Social Downloads 1
Likes 0
Share VATSIM

Download

Looking for another format? Having issues loading an existing format? Contact us
Advertisement - Login to hide

Notes

Basic altitude profile: - Ascent Rate: 2500ft/min - Ascent Speed: 250kts - Cruise Altitude: 35000ft - Cruise Speed: 420kts - Descent Rate: 1500ft/min - Descent Speed: 250kts

Route

LFRO LN LFRT

ID Type Via Altitude Latitude Longitude Leg Dist Tot Dist Heading (true) Name
O LFRO APT - 0 ft / 0 m 48.75431˚ -3.47175˚ - 0 nm - Lannion
LN NDB - 2,400 ft / 732 m 48.71928˚ -3.30778˚ 6 nm 6 nm 108° / 108° LANNION NDB
O LFRT APT - 0 ft / 0 m 48.53827˚ -2.85461˚ 21 nm 27 nm 121° / 121° Saint Brieuc Armor

Altitude Profile

Advertisement - Login to hide

LFRO

Details ICAO LFRO (LAI)
Name Lannion
Region France
Timezone Europe/Paris (UTC+1.0)
Stats Elevation 291 ft / 89 m (AMSL)
Location 48.754309° -3.471747°
Runways 1
Magnetic Variation 1.287° W

METAR

LFRO 121630Z AUTO 18005KT CAVOK 07/04 Q1012 BECMG 20015KT OVC010

Decode

TAF

TAF LFRO 121100Z 1212/1312 20008KT 9999 SCT040 BKN200 BECMG 1218/1221 20015KT OVC010 TEMPO 1221/1301 21018G28KT 4000 -RA OVC005 BECMG 1301/1303 28008KT BKN020 BECMG 1309/1312 24015G25KT 4000 RA OVC005

Decode

Departure Runways

ID Width Length Bearing (true) Bearing (mag) Surface Threshold Offset Overrun Length
11 148 ft / 45 m 5,547 ft / 1,691 m 107.61° 108.90° Asphalt 755 ft / 230 m 0 ft / 0 m
29 148 ft / 45 m 5,547 ft / 1,691 m 287.62° 288.91° Asphalt 591 ft / 180 m 0 ft / 0 m

LFRT

Details ICAO LFRT (SBK)
Name Saint Brieuc Armor
Region France
Timezone Europe/Paris (UTC+1.0)
Stats Elevation 452 ft / 138 m (AMSL)
Location 48.538265° -2.854612°
Runways 1
Magnetic Variation 1.053° W

METAR

LFRT 121630Z AUTO 22005KT 180V280 CAVOK 07/04 Q1012

Decode

TAF

Not found

Destination Runways

ID Width Length Bearing (true) Bearing (mag) Surface Threshold Offset Overrun Length
06 148 ft / 45 m 7,214 ft / 2,199 m 58.77° 59.82° Asphalt 0 ft / 0 m 0 ft / 0 m
24 148 ft / 45 m 7,214 ft / 2,199 m 238.79° 239.84° Asphalt 0 ft / 0 m 0 ft / 0 m

Approach Navaids

Runway Type Ident Frequency Range Bearing (true) Bearing (mag) Slope Elevation
24 Localiser SB 109.95 MHz 18 nm / 33 km 238.78° 239.83° - 452 ft / 138 m (AMSL)
24 Glidescope SB 109.95 MHz 10 nm / 19 km 238.78° 239.83° 3.00° 452 ft / 138 m (AMSL)